sensor_id;sensor_type;location;lat;lon;timestamp;temperature;humidity
65034;DHT22;51601;51.356;12.458;2023-12-07T00:00:02;3.30;99.90
65034;DHT22;51601;51.356;12.458;2023-12-07T00:04:21;3.30;99.90
65034;DHT22;51601;51.356;12.458;2023-12-07T00:08:38;3.30;99.90
65034;DHT22;51601;51.356;12.458;2023-12-07T00:13:01;3.40;99.90
65034;DHT22;51601;51.356;12.458;2023-12-07T00:17:20;3.40;99.90
65034;DHT22;51601;51.356;12.458;2023-12-07T00:21:38;3.50;99.90
65034;DHT22;51601;51.356;12.458;2023-12-07T00:25:59;3.50;99.90
65034;DHT22;51601;51.356;12.458;2023-12-07T00:30:19;3.50;99.90
65034;DHT22;51601;51.356;12.458;2023-12-07T00:34:39;3.50;99.90
65034;DHT22;51601;51.356;12.458;2023-12-07T00:38:57;3.50;99.90
65034;DHT22;51601;51.356;12.458;2023-12-07T00:43:15;3.50;99.90
65034;DHT22;51601;51.356;12.458;2023-12-07T00:47:34;3.50;99.90
65034;DHT22;51601;51.356;12.458;2023-12-07T00:51:59;3.50;99.90
65034;DHT22;51601;51.356;12.458;2023-12-07T00:56:19;3.50;99.90
65034;DHT22;51601;51.356;12.458;2023-12-07T01:00:39;3.50;99.90
65034;DHT22;51601;51.356;12.458;2023-12-07T01:04:59;3.50;99.90
65034;DHT22;51601;51.356;12.458;2023-12-07T01:09:18;3.50;99.90
65034;DHT22;51601;51.356;12.458;2023-12-07T01:13:40;3.50;99.90
65034;DHT22;51601;51.356;12.458;2023-12-07T01:17:58;3.50;99.90
65034;DHT22;51601;51.356;12.458;2023-12-07T01:22:17;3.50;99.90
65034;DHT22;51601;51.356;12.458;2023-12-07T01:26:40;3.50;99.90
65034;DHT22;51601;51.356;12.458;2023-12-07T01:30:58;3.50;99.90
65034;DHT22;51601;51.356;12.458;2023-12-07T01:35:16;3.50;99.90
65034;DHT22;51601;51.356;12.458;2023-12-07T01:39:36;3.50;99.90
65034;DHT22;51601;51.356;12.458;2023-12-07T01:43:55;3.50;99.90
65034;DHT22;51601;51.356;12.458;2023-12-07T01:48:13;3.50;99.90
65034;DHT22;51601;51.356;12.458;2023-12-07T01:52:31;3.50;99.90
65034;DHT22;51601;51.356;12.458;2023-12-07T01:56:54;3.50;99.90
65034;DHT22;51601;51.356;12.458;2023-12-07T02:01:14;3.50;99.90
65034;DHT22;51601;51.356;12.458;2023-12-07T02:05:32;3.50;99.90
65034;DHT22;51601;51.356;12.458;2023-12-07T02:09:52;3.50;99.90
65034;DHT22;51601;51.356;12.458;2023-12-07T02:14:13;3.50;99.90
65034;DHT22;51601;51.356;12.458;2023-12-07T02:18:38;3.50;99.90
65034;DHT22;51601;51.356;12.458;2023-12-07T02:23:01;3.50;99.90
65034;DHT22;51601;51.356;12.458;2023-12-07T02:27:34;3.50;99.90
65034;DHT22;51601;51.356;12.458;2023-12-07T02:31:54;3.50;99.90
65034;DHT22;51601;51.356;12.458;2023-12-07T02:36:14;3.40;99.90
65034;DHT22;51601;51.356;12.458;2023-12-07T02:40:34;3.40;99.90
65034;DHT22;51601;51.356;12.458;2023-12-07T02:44:53;3.50;99.90
65034;DHT22;51601;51.356;12.458;2023-12-07T02:49:15;3.50;99.90
65034;DHT22;51601;51.356;12.458;2023-12-07T02:53:34;3.50;99.90
65034;DHT22;51601;51.356;12.458;2023-12-07T02:57:51;3.40;99.90
65034;DHT22;51601;51.356;12.458;2023-12-07T03:02:11;3.50;99.90
65034;DHT22;51601;51.356;12.458;2023-12-07T03:06:27;3.40;99.90
65034;DHT22;51601;51.356;12.458;2023-12-07T03:10:45;3.50;99.90
65034;DHT22;51601;51.356;12.458;2023-12-07T03:15:04;3.40;99.90
65034;DHT22;51601;51.356;12.458;2023-12-07T03:19:23;3.50;99.90
65034;DHT22;51601;51.356;12.458;2023-12-07T03:23:43;3.50;99.90
65034;DHT22;51601;51.356;12.458;2023-12-07T03:28:01;3.50;99.90
65034;DHT22;51601;51.356;12.458;2023-12-07T03:32:19;3.50;99.90
65034;DHT22;51601;51.356;12.458;2023-12-07T03:36:38;3.50;99.90
65034;DHT22;51601;51.356;12.458;2023-12-07T03:40:58;3.50;99.90
65034;DHT22;51601;51.356;12.458;2023-12-07T03:45:19;3.50;99.90
65034;DHT22;51601;51.356;12.458;2023-12-07T03:49:37;3.50;99.90
65034;DHT22;51601;51.356;12.458;2023-12-07T03:54:00;3.50;99.90
65034;DHT22;51601;51.356;12.458;2023-12-07T03:58:26;3.50;99.90
65034;DHT22;51601;51.356;12.458;2023-12-07T04:02:44;3.50;99.90
65034;DHT22;51601;51.356;12.458;2023-12-07T04:07:02;3.50;99.90
65034;DHT22;51601;51.356;12.458;2023-12-07T04:11:24;3.50;99.90
65034;DHT22;51601;51.356;12.458;2023-12-07T04:15:41;3.50;99.90
65034;DHT22;51601;51.356;12.458;2023-12-07T04:19:59;3.50;99.90
65034;DHT22;51601;51.356;12.458;2023-12-07T04:24:17;3.50;99.90
65034;DHT22;51601;51.356;12.458;2023-12-07T04:28:37;3.50;99.90
65034;DHT22;51601;51.356;12.458;2023-12-07T04:32:56;3.50;99.90
65034;DHT22;51601;51.356;12.458;2023-12-07T04:37:14;3.50;99.90
65034;DHT22;51601;51.356;12.458;2023-12-07T04:41:32;3.50;99.90
65034;DHT22;51601;51.356;12.458;2023-12-07T04:45:52;3.50;99.90
65034;DHT22;51601;51.356;12.458;2023-12-07T04:50:12;3.50;99.90
65034;DHT22;51601;51.356;12.458;2023-12-07T04:54:30;3.50;99.90
65034;DHT22;51601;51.356;12.458;2023-12-07T04:58:48;3.50;99.90
65034;DHT22;51601;51.356;12.458;2023-12-07T05:03:10;3.50;99.90
65034;DHT22;51601;51.356;12.458;2023-12-07T05:07:30;3.50;99.90
65034;DHT22;51601;51.356;12.458;2023-12-07T05:11:48;3.50;99.90
65034;DHT22;51601;51.356;12.458;2023-12-07T05:16:06;3.50;99.90
65034;DHT22;51601;51.356;12.458;2023-12-07T05:20:25;3.50;99.90
65034;DHT22;51601;51.356;12.458;2023-12-07T05:24:45;3.50;99.90
65034;DHT22;51601;51.356;12.458;2023-12-07T05:29:04;3.50;99.90
65034;DHT22;51601;51.356;12.458;2023-12-07T05:33:21;3.50;99.90
65034;DHT22;51601;51.356;12.458;2023-12-07T05:37:41;3.50;99.90
65034;DHT22;51601;51.356;12.458;2023-12-07T05:42:00;3.50;99.90
65034;DHT22;51601;51.356;12.458;2023-12-07T05:46:22;3.50;99.90
65034;DHT22;51601;51.356;12.458;2023-12-07T05:50:43;3.50;99.90
65034;DHT22;51601;51.356;12.458;2023-12-07T05:55:03;3.50;99.90
65034;DHT22;51601;51.356;12.458;2023-12-07T05:59:22;3.40;99.90
65034;DHT22;51601;51.356;12.458;2023-12-07T06:03:41;3.40;99.90
65034;DHT22;51601;51.356;12.458;2023-12-07T06:08:05;3.40;99.90
65034;DHT22;51601;51.356;12.458;2023-12-07T06:12:24;3.40;99.90
65034;DHT22;51601;51.356;12.458;2023-12-07T06:16:46;3.40;99.90
65034;DHT22;51601;51.356;12.458;2023-12-07T06:21:05;3.40;99.90
65034;DHT22;51601;51.356;12.458;2023-12-07T06:25:23;3.40;99.90
65034;DHT22;51601;51.356;12.458;2023-12-07T06:29:43;3.40;99.90
65034;DHT22;51601;51.356;12.458;2023-12-07T06:34:02;3.40;99.90
65034;DHT22;51601;51.356;12.458;2023-12-07T06:38:20;3.40;99.90
65034;DHT22;51601;51.356;12.458;2023-12-07T06:42:38;3.40;99.90
65034;DHT22;51601;51.356;12.458;2023-12-07T06:46:58;3.40;99.90
65034;DHT22;51601;51.356;12.458;2023-12-07T06:51:21;3.40;99.90
65034;DHT22;51601;51.356;12.458;2023-12-07T06:55:38;3.40;99.90
65034;DHT22;51601;51.356;12.458;2023-12-07T07:00:03;3.30;99.90
65034;DHT22;51601;51.356;12.458;2023-12-07T07:04:28;3.30;99.90
65034;DHT22;51601;51.356;12.458;2023-12-07T07:08:48;3.30;99.90
65034;DHT22;51601;51.356;12.458;2023-12-07T07:13:09;3.40;99.90
65034;DHT22;51601;51.356;12.458;2023-12-07T07:17:32;3.40;99.90
65034;DHT22;51601;51.356;12.458;2023-12-07T07:22:11;3.40;99.90
65034;DHT22;51601;51.356;12.458;2023-12-07T07:26:31;3.40;99.90
65034;DHT22;51601;51.356;12.458;2023-12-07T07:30:50;3.40;99.90
65034;DHT22;51601;51.356;12.458;2023-12-07T07:35:10;3.50;99.90
65034;DHT22;51601;51.356;12.458;2023-12-07T07:39:32;3.60;99.90
65034;DHT22;51601;51.356;12.458;2023-12-07T07:43:52;3.60;99.90
65034;DHT22;51601;51.356;12.458;2023-12-07T07:48:10;3.60;99.90
65034;DHT22;51601;51.356;12.458;2023-12-07T07:52:29;3.60;99.90
65034;DHT22;51601;51.356;12.458;2023-12-07T07:56:52;3.70;99.90
65034;DHT22;51601;51.356;12.458;2023-12-07T08:01:11;3.70;99.90
65034;DHT22;51601;51.356;12.458;2023-12-07T08:05:32;3.70;99.90
65034;DHT22;51601;51.356;12.458;2023-12-07T08:09:53;3.70;99.90
65034;DHT22;51601;51.356;12.458;2023-12-07T08:14:17;3.70;99.90
65034;DHT22;51601;51.356;12.458;2023-12-07T08:18:57;3.70;99.90
65034;DHT22;51601;51.356;12.458;2023-12-07T08:23:15;3.70;99.90
65034;DHT22;51601;51.356;12.458;2023-12-07T08:27:33;3.80;99.90
65034;DHT22;51601;51.356;12.458;2023-12-07T08:32:01;3.80;99.90
65034;DHT22;51601;51.356;12.458;2023-12-07T08:36:21;3.80;99.90
65034;DHT22;51601;51.356;12.458;2023-12-07T08:40:39;3.90;99.90
65034;DHT22;51601;51.356;12.458;2023-12-07T08:45:00;3.90;99.90
65034;DHT22;51601;51.356;12.458;2023-12-07T08:49:20;3.90;99.90
65034;DHT22;51601;51.356;12.458;2023-12-07T08:53:40;4.00;99.90
65034;DHT22;51601;51.356;12.458;2023-12-07T08:58:01;4.00;99.90
65034;DHT22;51601;51.356;12.458;2023-12-07T09:02:34;4.00;99.90
65034;DHT22;51601;51.356;12.458;2023-12-07T09:07:06;4.10;99.90
65034;DHT22;51601;51.356;12.458;2023-12-07T09:11:27;4.10;99.90
65034;DHT22;51601;51.356;12.458;2023-12-07T09:15:46;4.10;99.90
65034;DHT22;51601;51.356;12.458;2023-12-07T09:20:05;4.00;99.90
65034;DHT22;51601;51.356;12.458;2023-12-07T09:24:30;4.10;99.90
65034;DHT22;51601;51.356;12.458;2023-12-07T09:28:53;4.00;99.90
65034;DHT22;51601;51.356;12.458;2023-12-07T09:33:12;4.10;99.90
65034;DHT22;51601;51.356;12.458;2023-12-07T09:37:29;4.10;99.90
65034;DHT22;51601;51.356;12.458;2023-12-07T09:41:52;4.10;99.90
65034;DHT22;51601;51.356;12.458;2023-12-07T09:46:12;4.10;99.90
65034;DHT22;51601;51.356;12.458;2023-12-07T09:50:33;4.10;99.90
65034;DHT22;51601;51.356;12.458;2023-12-07T09:54:52;4.10;99.90
65034;DHT22;51601;51.356;12.458;2023-12-07T09:59:16;4.10;99.90
65034;DHT22;51601;51.356;12.458;2023-12-07T10:03:39;4.10;99.90
65034;DHT22;51601;51.356;12.458;2023-12-07T10:07:57;4.10;99.90
65034;DHT22;51601;51.356;12.458;2023-12-07T10:12:15;4.10;99.90
65034;DHT22;51601;51.356;12.458;2023-12-07T10:16:37;4.20;99.90
65034;DHT22;51601;51.356;12.458;2023-12-07T10:20:54;4.20;99.90
65034;DHT22;51601;51.356;12.458;2023-12-07T10:25:12;4.20;99.90
65034;DHT22;51601;51.356;12.458;2023-12-07T10:30:13;4.20;99.90
65034;DHT22;51601;51.356;12.458;2023-12-07T10:34:39;4.20;99.90
65034;DHT22;51601;51.356;12.458;2023-12-07T10:38:59;4.30;99.90
65034;DHT22;51601;51.356;12.458;2023-12-07T10:43:19;4.20;99.90
65034;DHT22;51601;51.356;12.458;2023-12-07T10:47:39;4.30;99.90
65034;DHT22;51601;51.356;12.458;2023-12-07T10:51:59;4.30;99.90
65034;DHT22;51601;51.356;12.458;2023-12-07T10:56:24;4.30;99.90
65034;DHT22;51601;51.356;12.458;2023-12-07T11:00:44;4.30;99.90
65034;DHT22;51601;51.356;12.458;2023-12-07T11:05:06;4.30;99.90
65034;DHT22;51601;51.356;12.458;2023-12-07T11:09:35;4.30;99.90
65034;DHT22;51601;51.356;12.458;2023-12-07T11:13:59;4.40;99.90
65034;DHT22;51601;51.356;12.458;2023-12-07T11:18:19;4.40;99.90
65034;DHT22;51601;51.356;12.458;2023-12-07T11:22:41;4.50;99.90
65034;DHT22;51601;51.356;12.458;2023-12-07T11:27:02;4.50;99.90
65034;DHT22;51601;51.356;12.458;2023-12-07T11:31:21;4.50;99.90
65034;DHT22;51601;51.356;12.458;2023-12-07T11:36:05;4.60;99.90
65034;DHT22;51601;51.356;12.458;2023-12-07T11:40:25;4.70;99.90
65034;DHT22;51601;51.356;12.458;2023-12-07T11:44:50;4.70;99.90
65034;DHT22;51601;51.356;12.458;2023-12-07T11:49:11;4.80;99.90
65034;DHT22;51601;51.356;12.458;2023-12-07T11:53:44;4.80;99.90
65034;DHT22;51601;51.356;12.458;2023-12-07T11:58:06;4.80;99.90
65034;DHT22;51601;51.356;12.458;2023-12-07T12:02:29;4.90;99.90
65034;DHT22;51601;51.356;12.458;2023-12-07T12:06:53;4.90;99.90
65034;DHT22;51601;51.356;12.458;2023-12-07T12:11:11;4.90;99.90
65034;DHT22;51601;51.356;12.458;2023-12-07T12:15:30;4.90;99.90
65034;DHT22;51601;51.356;12.458;2023-12-07T12:19:52;5.00;99.90
65034;DHT22;51601;51.356;12.458;2023-12-07T12:24:12;5.00;99.90
65034;DHT22;51601;51.356;12.458;2023-12-07T12:28:30;5.10;99.90
65034;DHT22;51601;51.356;12.458;2023-12-07T12:32:51;5.10;99.90
65034;DHT22;51601;51.356;12.458;2023-12-07T12:37:14;5.20;99.90
65034;DHT22;51601;51.356;12.458;2023-12-07T12:41:33;5.20;99.90
65034;DHT22;51601;51.356;12.458;2023-12-07T12:45:51;5.20;99.90
65034;DHT22;51601;51.356;12.458;2023-12-07T12:50:37;5.20;99.90
65034;DHT22;51601;51.356;12.458;2023-12-07T12:54:57;5.20;99.90
65034;DHT22;51601;51.356;12.458;2023-12-07T12:59:16;5.30;99.90
65034;DHT22;51601;51.356;12.458;2023-12-07T13:03:37;5.30;99.90
65034;DHT22;51601;51.356;12.458;2023-12-07T13:07:55;5.30;99.90
65034;DHT22;51601;51.356;12.458;2023-12-07T13:12:30;5.30;99.90
65034;DHT22;51601;51.356;12.458;2023-12-07T13:16:51;5.30;99.90
65034;DHT22;51601;51.356;12.458;2023-12-07T13:21:11;5.30;99.90
65034;DHT22;51601;51.356;12.458;2023-12-07T13:25:35;5.30;99.90
65034;DHT22;51601;51.356;12.458;2023-12-07T13:29:55;5.30;99.90
65034;DHT22;51601;51.356;12.458;2023-12-07T13:34:15;5.30;99.90
65034;DHT22;51601;51.356;12.458;2023-12-07T13:38:40;5.30;99.90
65034;DHT22;51601;51.356;12.458;2023-12-07T13:43:03;5.30;99.90
65034;DHT22;51601;51.356;12.458;2023-12-07T13:47:22;5.30;99.90
65034;DHT22;51601;51.356;12.458;2023-12-07T13:51:45;5.30;99.90
65034;DHT22;51601;51.356;12.458;2023-12-07T13:56:04;5.40;99.90
65034;DHT22;51601;51.356;12.458;2023-12-07T14:00:21;5.40;99.90
65034;DHT22;51601;51.356;12.458;2023-12-07T14:04:41;5.30;99.90
65034;DHT22;51601;51.356;12.458;2023-12-07T14:09:01;5.30;99.90
65034;DHT22;51601;51.356;12.458;2023-12-07T14:13:18;5.20;99.90
65034;DHT22;51601;51.356;12.458;2023-12-07T14:17:36;5.20;99.90
65034;DHT22;51601;51.356;12.458;2023-12-07T14:22:12;5.20;99.90
65034;DHT22;51601;51.356;12.458;2023-12-07T14:26:31;5.20;99.90
65034;DHT22;51601;51.356;12.458;2023-12-07T14:30:57;5.10;99.90
65034;DHT22;51601;51.356;12.458;2023-12-07T14:35:16;5.10;99.90
65034;DHT22;51601;51.356;12.458;2023-12-07T14:39:36;5.00;99.90
65034;DHT22;51601;51.356;12.458;2023-12-07T14:43:56;5.00;99.90
65034;DHT22;51601;51.356;12.458;2023-12-07T14:48:14;4.90;99.90
65034;DHT22;51601;51.356;12.458;2023-12-07T14:52:32;4.90;99.90
65034;DHT22;51601;51.356;12.458;2023-12-07T14:56:54;4.80;99.90
65034;DHT22;51601;51.356;12.458;2023-12-07T15:01:14;4.80;99.90
65034;DHT22;51601;51.356;12.458;2023-12-07T15:05:32;4.70;99.90
65034;DHT22;51601;51.356;12.458;2023-12-07T15:09:50;4.70;99.90
65034;DHT22;51601;51.356;12.458;2023-12-07T15:14:11;4.60;99.90
65034;DHT22;51601;51.356;12.458;2023-12-07T15:18:48;4.60;99.90
65034;DHT22;51601;51.356;12.458;2023-12-07T15:23:06;4.50;99.90
65034;DHT22;51601;51.356;12.458;2023-12-07T15:27:27;4.50;99.90
65034;DHT22;51601;51.356;12.458;2023-12-07T15:31:46;4.40;99.90
65034;DHT22;51601;51.356;12.458;2023-12-07T15:36:06;4.40;99.90
65034;DHT22;51601;51.356;12.458;2023-12-07T15:40:24;4.30;99.90
65034;DHT22;51601;51.356;12.458;2023-12-07T15:44:43;4.30;99.90
65034;DHT22;51601;51.356;12.458;2023-12-07T15:49:02;4.20;99.90
65034;DHT22;51601;51.356;12.458;2023-12-07T15:53:24;4.10;99.90
65034;DHT22;51601;51.356;12.458;2023-12-07T15:57:46;4.00;99.90
65034;DHT22;51601;51.356;12.458;2023-12-07T16:02:04;3.90;99.90
65034;DHT22;51601;51.356;12.458;2023-12-07T16:06:26;3.90;99.90
65034;DHT22;51601;51.356;12.458;2023-12-07T16:10:49;3.90;99.90
65034;DHT22;51601;51.356;12.458;2023-12-07T16:15:08;3.80;99.90
65034;DHT22;51601;51.356;12.458;2023-12-07T16:19:28;3.80;99.90
65034;DHT22;51601;51.356;12.458;2023-12-07T16:23:47;3.80;99.90
65034;DHT22;51601;51.356;12.458;2023-12-07T16:28:07;3.80;99.90
65034;DHT22;51601;51.356;12.458;2023-12-07T16:32:25;3.80;99.90
65034;DHT22;51601;51.356;12.458;2023-12-07T16:36:43;3.90;99.90
65034;DHT22;51601;51.356;12.458;2023-12-07T16:41:03;3.90;99.90
65034;DHT22;51601;51.356;12.458;2023-12-07T16:45:23;3.90;99.90
65034;DHT22;51601;51.356;12.458;2023-12-07T16:49:41;3.90;99.90
65034;DHT22;51601;51.356;12.458;2023-12-07T16:53:59;3.90;99.90
65034;DHT22;51601;51.356;12.458;2023-12-07T16:58:18;3.80;99.90
65034;DHT22;51601;51.356;12.458;2023-12-07T17:02:56;3.80;99.90
65034;DHT22;51601;51.356;12.458;2023-12-07T17:07:15;3.80;99.90
65034;DHT22;51601;51.356;12.458;2023-12-07T17:11:32;3.80;99.90
65034;DHT22;51601;51.356;12.458;2023-12-07T17:15:52;3.80;99.90
65034;DHT22;51601;51.356;12.458;2023-12-07T17:20:15;3.90;99.90
65034;DHT22;51601;51.356;12.458;2023-12-07T17:24:33;3.90;99.90
65034;DHT22;51601;51.356;12.458;2023-12-07T17:28:54;3.80;99.90
65034;DHT22;51601;51.356;12.458;2023-12-07T17:33:13;3.90;99.90
65034;DHT22;51601;51.356;12.458;2023-12-07T17:37:39;3.90;99.90
65034;DHT22;51601;51.356;12.458;2023-12-07T17:41:58;3.90;99.90
65034;DHT22;51601;51.356;12.458;2023-12-07T17:46:17;3.90;99.90
65034;DHT22;51601;51.356;12.458;2023-12-07T17:50:38;3.80;99.90
65034;DHT22;51601;51.356;12.458;2023-12-07T17:55:01;3.80;99.90
65034;DHT22;51601;51.356;12.458;2023-12-07T17:59:19;3.80;99.90
65034;DHT22;51601;51.356;12.458;2023-12-07T18:03:40;3.80;99.90
65034;DHT22;51601;51.356;12.458;2023-12-07T18:07:59;3.80;99.90
65034;DHT22;51601;51.356;12.458;2023-12-07T18:12:20;3.80;99.90
65034;DHT22;51601;51.356;12.458;2023-12-07T18:16:39;3.80;99.90
65034;DHT22;51601;51.356;12.458;2023-12-07T18:20:58;3.80;99.90
65034;DHT22;51601;51.356;12.458;2023-12-07T18:25:19;3.80;99.90
65034;DHT22;51601;51.356;12.458;2023-12-07T18:29:38;3.70;99.90
65034;DHT22;51601;51.356;12.458;2023-12-07T18:33:59;3.60;99.90
65034;DHT22;51601;51.356;12.458;2023-12-07T18:38:17;3.50;99.90
65034;DHT22;51601;51.356;12.458;2023-12-07T18:42:40;3.40;99.90
65034;DHT22;51601;51.356;12.458;2023-12-07T18:46:59;3.30;99.90
65034;DHT22;51601;51.356;12.458;2023-12-07T18:51:17;3.20;99.90
65034;DHT22;51601;51.356;12.458;2023-12-07T18:55:37;3.00;99.90
65034;DHT22;51601;51.356;12.458;2023-12-07T19:00:00;2.80;99.90
65034;DHT22;51601;51.356;12.458;2023-12-07T19:04:17;2.60;99.90
65034;DHT22;51601;51.356;12.458;2023-12-07T19:08:35;2.50;99.90
65034;DHT22;51601;51.356;12.458;2023-12-07T19:12:53;2.40;99.90
65034;DHT22;51601;51.356;12.458;2023-12-07T19:17:17;2.30;99.90
65034;DHT22;51601;51.356;12.458;2023-12-07T19:21:36;2.20;99.90
65034;DHT22;51601;51.356;12.458;2023-12-07T19:26:07;2.10;99.90
65034;DHT22;51601;51.356;12.458;2023-12-07T19:30:27;2.00;99.90
65034;DHT22;51601;51.356;12.458;2023-12-07T19:34:50;1.90;99.90
65034;DHT22;51601;51.356;12.458;2023-12-07T19:39:11;1.90;99.90
65034;DHT22;51601;51.356;12.458;2023-12-07T19:43:49;1.90;99.90
65034;DHT22;51601;51.356;12.458;2023-12-07T19:48:12;1.80;99.90
65034;DHT22;51601;51.356;12.458;2023-12-07T19:52:44;1.80;99.90
65034;DHT22;51601;51.356;12.458;2023-12-07T19:57:10;1.70;99.90
65034;DHT22;51601;51.356;12.458;2023-12-07T20:01:29;1.70;99.90
65034;DHT22;51601;51.356;12.458;2023-12-07T20:05:52;1.60;99.90
65034;DHT22;51601;51.356;12.458;2023-12-07T20:10:19;1.60;99.90
65034;DHT22;51601;51.356;12.458;2023-12-07T20:14:38;1.60;99.90
65034;DHT22;51601;51.356;12.458;2023-12-07T20:19:00;1.50;99.90
65034;DHT22;51601;51.356;12.458;2023-12-07T20:23:21;1.40;99.90
65034;DHT22;51601;51.356;12.458;2023-12-07T20:27:40;1.40;99.90
65034;DHT22;51601;51.356;12.458;2023-12-07T20:32:00;1.30;99.90
65034;DHT22;51601;51.356;12.458;2023-12-07T20:36:18;1.30;99.90
65034;DHT22;51601;51.356;12.458;2023-12-07T20:40:39;1.20;99.90
65034;DHT22;51601;51.356;12.458;2023-12-07T20:45:04;1.10;99.90
65034;DHT22;51601;51.356;12.458;2023-12-07T20:49:26;1.10;99.90
65034;DHT22;51601;51.356;12.458;2023-12-07T20:53:48;1.10;99.90
65034;DHT22;51601;51.356;12.458;2023-12-07T20:58:10;1.00;99.90
65034;DHT22;51601;51.356;12.458;2023-12-07T21:02:44;1.00;99.90
65034;DHT22;51601;51.356;12.458;2023-12-07T21:07:07;0.90;99.90
65034;DHT22;51601;51.356;12.458;2023-12-07T21:11:25;0.90;99.90
65034;DHT22;51601;51.356;12.458;2023-12-07T21:15:43;0.80;99.90
65034;DHT22;51601;51.356;12.458;2023-12-07T21:20:05;0.80;99.90
65034;DHT22;51601;51.356;12.458;2023-12-07T21:24:22;0.80;99.90
65034;DHT22;51601;51.356;12.458;2023-12-07T21:28:40;0.80;99.90
65034;DHT22;51601;51.356;12.458;2023-12-07T21:32:58;0.70;99.90
65034;DHT22;51601;51.356;12.458;2023-12-07T21:37:20;0.70;99.90
65034;DHT22;51601;51.356;12.458;2023-12-07T21:41:44;0.60;99.90
65034;DHT22;51601;51.356;12.458;2023-12-07T21:46:05;0.60;99.90
65034;DHT22;51601;51.356;12.458;2023-12-07T21:50:26;0.60;99.90
65034;DHT22;51601;51.356;12.458;2023-12-07T21:54:45;0.60;99.90
65034;DHT22;51601;51.356;12.458;2023-12-07T21:59:06;0.60;99.90
65034;DHT22;51601;51.356;12.458;2023-12-07T22:03:23;0.50;99.90
65034;DHT22;51601;51.356;12.458;2023-12-07T22:07:41;0.50;99.90
65034;DHT22;51601;51.356;12.458;2023-12-07T22:12:01;0.40;99.90
65034;DHT22;51601;51.356;12.458;2023-12-07T22:16:24;0.40;99.90
65034;DHT22;51601;51.356;12.458;2023-12-07T22:20:46;0.40;99.90
65034;DHT22;51601;51.356;12.458;2023-12-07T22:25:06;0.30;99.90
65034;DHT22;51601;51.356;12.458;2023-12-07T22:29:26;0.30;99.90
65034;DHT22;51601;51.356;12.458;2023-12-07T22:33:45;0.20;99.90
65034;DHT22;51601;51.356;12.458;2023-12-07T22:38:18;0.20;99.90
65034;DHT22;51601;51.356;12.458;2023-12-07T22:42:40;0.20;99.90
65034;DHT22;51601;51.356;12.458;2023-12-07T22:52:04;0.10;99.90
65034;DHT22;51601;51.356;12.458;2023-12-07T22:56:29;0.10;99.90
65034;DHT22;51601;51.356;12.458;2023-12-07T23:00:47;0.00;99.90
65034;DHT22;51601;51.356;12.458;2023-12-07T23:05:06;0.00;99.90
65034;DHT22;51601;51.356;12.458;2023-12-07T23:09:29;0.00;99.90
65034;DHT22;51601;51.356;12.458;2023-12-07T23:13:48;0.00;99.90
65034;DHT22;51601;51.356;12.458;2023-12-07T23:18:06;0.00;99.90
65034;DHT22;51601;51.356;12.458;2023-12-07T23:22:27;0.00;99.90
65034;DHT22;51601;51.356;12.458;2023-12-07T23:26:46;0.00;99.90
65034;DHT22;51601;51.356;12.458;2023-12-07T23:31:06;0.00;99.90
65034;DHT22;51601;51.356;12.458;2023-12-07T23:35:24;-0.10;99.90
65034;DHT22;51601;51.356;12.458;2023-12-07T23:39:42;-0.10;99.90
65034;DHT22;51601;51.356;12.458;2023-12-07T23:44:02;-0.10;99.90
65034;DHT22;51601;51.356;12.458;2023-12-07T23:48:24;-0.10;99.90
65034;DHT22;51601;51.356;12.458;2023-12-07T23:52:45;-0.10;99.90
65034;DHT22;51601;51.356;12.458;2023-12-07T23:57:04;-0.10;99.90
